sensor_id;sensor_type;location;lat;lon;timestamp;P1;durP1;ratioP1;P2;durP2;ratioP2
19727;SDS011;10015;52.530;13.390;2023-11-21T00:01:24;12.77;;;6.90;;
19727;SDS011;10015;52.530;13.390;2023-11-21T00:03:50;16.67;;;8.03;;
19727;SDS011;10015;52.530;13.390;2023-11-21T00:06:16;15.53;;;7.40;;
19727;SDS011;10015;52.530;13.390;2023-11-21T00:08:41;16.97;;;8.23;;
19727;SDS011;10015;52.530;13.390;2023-11-21T00:11:07;16.47;;;7.70;;
19727;SDS011;10015;52.530;13.390;2023-11-21T00:13:33;17.67;;;8.57;;
19727;SDS011;10015;52.530;13.390;2023-11-21T00:16:00;17.33;;;8.47;;
19727;SDS011;10015;52.530;13.390;2023-11-21T00:18:26;16.73;;;8.90;;
19727;SDS011;10015;52.530;13.390;2023-11-21T00:20:52;17.10;;;8.73;;
19727;SDS011;10015;52.530;13.390;2023-11-21T00:23:17;17.90;;;8.80;;
19727;SDS011;10015;52.530;13.390;2023-11-21T00:25:43;16.43;;;9.10;;
19727;SDS011;10015;52.530;13.390;2023-11-21T00:28:09;16.47;;;8.40;;
19727;SDS011;10015;52.530;13.390;2023-11-21T00:30:35;19.63;;;8.97;;
19727;SDS011;10015;52.530;13.390;2023-11-21T00:33:01;19.53;;;9.00;;
19727;SDS011;10015;52.530;13.390;2023-11-21T00:35:27;19.43;;;9.47;;
19727;SDS011;10015;52.530;13.390;2023-11-21T00:37:53;17.47;;;9.70;;
19727;SDS011;10015;52.530;13.390;2023-11-21T00:40:19;19.67;;;9.83;;
19727;SDS011;10015;52.530;13.390;2023-11-21T00:42:46;24.63;;;10.07;;
19727;SDS011;10015;52.530;13.390;2023-11-21T00:45:13;23.53;;;10.87;;
19727;SDS011;10015;52.530;13.390;2023-11-21T00:47:39;24.03;;;10.73;;
19727;SDS011;10015;52.530;13.390;2023-11-21T00:50:06;23.73;;;11.00;;
19727;SDS011;10015;52.530;13.390;2023-11-21T00:52:32;26.57;;;11.20;;
19727;SDS011;10015;52.530;13.390;2023-11-21T00:54:58;24.80;;;11.13;;
19727;SDS011;10015;52.530;13.390;2023-11-21T00:57:26;31.03;;;12.30;;
19727;SDS011;10015;52.530;13.390;2023-11-21T00:59:52;33.43;;;12.57;;
19727;SDS011;10015;52.530;13.390;2023-11-21T01:02:18;33.53;;;12.03;;
19727;SDS011;10015;52.530;13.390;2023-11-21T01:04:44;41.57;;;13.70;;
19727;SDS011;10015;52.530;13.390;2023-11-21T01:07:10;39.43;;;14.40;;
19727;SDS011;10015;52.530;13.390;2023-11-21T01:09:35;37.63;;;14.27;;
19727;SDS011;10015;52.530;13.390;2023-11-21T01:12:01;42.17;;;15.20;;
19727;SDS011;10015;52.530;13.390;2023-11-21T01:14:27;41.43;;;15.30;;
19727;SDS011;10015;52.530;13.390;2023-11-21T01:16:53;43.87;;;15.50;;
19727;SDS011;10015;52.530;13.390;2023-11-21T01:19:19;42.10;;;15.03;;
19727;SDS011;10015;52.530;13.390;2023-11-21T01:21:45;46.47;;;15.40;;
19727;SDS011;10015;52.530;13.390;2023-11-21T01:24:12;52.80;;;16.93;;
19727;SDS011;10015;52.530;13.390;2023-11-21T01:26:38;50.13;;;16.77;;
19727;SDS011;10015;52.530;13.390;2023-11-21T01:29:04;47.00;;;15.87;;
19727;SDS011;10015;52.530;13.390;2023-11-21T01:31:30;45.13;;;15.70;;
19727;SDS011;10015;52.530;13.390;2023-11-21T01:33:56;46.87;;;16.73;;
19727;SDS011;10015;52.530;13.390;2023-11-21T01:36:22;47.80;;;15.30;;
19727;SDS011;10015;52.530;13.390;2023-11-21T01:38:48;46.50;;;15.33;;
19727;SDS011;10015;52.530;13.390;2023-11-21T01:41:15;40.57;;;14.93;;
19727;SDS011;10015;52.530;13.390;2023-11-21T01:43:41;51.33;;;15.63;;
19727;SDS011;10015;52.530;13.390;2023-11-21T01:46:08;47.83;;;15.93;;
19727;SDS011;10015;52.530;13.390;2023-11-21T01:48:35;41.43;;;13.40;;
19727;SDS011;10015;52.530;13.390;2023-11-21T01:51:01;40.47;;;12.67;;
19727;SDS011;10015;52.530;13.390;2023-11-21T01:53:28;27.07;;;10.40;;
19727;SDS011;10015;52.530;13.390;2023-11-21T01:55:55;26.90;;;10.90;;
19727;SDS011;10015;52.530;13.390;2023-11-21T01:58:21;26.37;;;9.70;;
19727;SDS011;10015;52.530;13.390;2023-11-21T02:00:48;21.60;;;8.93;;
19727;SDS011;10015;52.530;13.390;2023-11-21T02:03:16;22.97;;;9.20;;
19727;SDS011;10015;52.530;13.390;2023-11-21T02:05:42;21.93;;;9.40;;
19727;SDS011;10015;52.530;13.390;2023-11-21T02:08:08;26.17;;;9.27;;
19727;SDS011;10015;52.530;13.390;2023-11-21T02:10:34;22.63;;;8.63;;
19727;SDS011;10015;52.530;13.390;2023-11-21T02:13:02;23.10;;;8.67;;
19727;SDS011;10015;52.530;13.390;2023-11-21T02:15:28;20.67;;;8.07;;
19727;SDS011;10015;52.530;13.390;2023-11-21T02:17:54;24.33;;;8.80;;
19727;SDS011;10015;52.530;13.390;2023-11-21T02:20:23;24.27;;;8.13;;
19727;SDS011;10015;52.530;13.390;2023-11-21T02:22:55;21.27;;;8.13;;
19727;SDS011;10015;52.530;13.390;2023-11-21T02:25:28;18.60;;;7.80;;
19727;SDS011;10015;52.530;13.390;2023-11-21T02:28:02;19.27;;;7.40;;
19727;SDS011;10015;52.530;13.390;2023-11-21T02:30:29;19.20;;;7.43;;
19727;SDS011;10015;52.530;13.390;2023-11-21T02:32:57;17.53;;;6.90;;
19727;SDS011;10015;52.530;13.390;2023-11-21T02:35:24;18.67;;;6.53;;
19727;SDS011;10015;52.530;13.390;2023-11-21T02:37:53;14.83;;;6.27;;
19727;SDS011;10015;52.530;13.390;2023-11-21T02:40:19;15.77;;;6.50;;
19727;SDS011;10015;52.530;13.390;2023-11-21T02:42:49;15.03;;;6.00;;
19727;SDS011;10015;52.530;13.390;2023-11-21T02:45:16;14.33;;;6.50;;
19727;SDS011;10015;52.530;13.390;2023-11-21T02:47:46;16.97;;;6.53;;
19727;SDS011;10015;52.530;13.390;2023-11-21T02:50:13;14.67;;;6.10;;
19727;SDS011;10015;52.530;13.390;2023-11-21T02:52:39;13.90;;;6.63;;
19727;SDS011;10015;52.530;13.390;2023-11-21T02:55:07;13.00;;;6.33;;
19727;SDS011;10015;52.530;13.390;2023-11-21T02:57:33;13.70;;;6.63;;
19727;SDS011;10015;52.530;13.390;2023-11-21T02:59:59;11.97;;;6.07;;
19727;SDS011;10015;52.530;13.390;2023-11-21T03:02:25;13.20;;;6.60;;
19727;SDS011;10015;52.530;13.390;2023-11-21T03:04:51;13.87;;;6.57;;
19727;SDS011;10015;52.530;13.390;2023-11-21T03:07:18;12.50;;;6.57;;
19727;SDS011;10015;52.530;13.390;2023-11-21T03:09:44;12.20;;;6.87;;
19727;SDS011;10015;52.530;13.390;2023-11-21T03:12:11;13.10;;;6.87;;
19727;SDS011;10015;52.530;13.390;2023-11-21T03:14:41;12.83;;;6.70;;
19727;SDS011;10015;52.530;13.390;2023-11-21T03:17:07;13.13;;;6.70;;
19727;SDS011;10015;52.530;13.390;2023-11-21T03:19:33;12.60;;;6.70;;
19727;SDS011;10015;52.530;13.390;2023-11-21T03:21:58;12.70;;;6.53;;
19727;SDS011;10015;52.530;13.390;2023-11-21T03:24:24;12.13;;;6.23;;
19727;SDS011;10015;52.530;13.390;2023-11-21T03:26:51;11.17;;;6.70;;
19727;SDS011;10015;52.530;13.390;2023-11-21T03:29:18;12.73;;;6.00;;
19727;SDS011;10015;52.530;13.390;2023-11-21T03:31:43;12.37;;;6.77;;
19727;SDS011;10015;52.530;13.390;2023-11-21T03:34:14;11.50;;;6.20;;
19727;SDS011;10015;52.530;13.390;2023-11-21T03:36:41;11.20;;;6.70;;
19727;SDS011;10015;52.530;13.390;2023-11-21T03:39:07;11.00;;;6.00;;
19727;SDS011;10015;52.530;13.390;2023-11-21T03:41:33;10.03;;;5.37;;
19727;SDS011;10015;52.530;13.390;2023-11-21T03:43:59;10.17;;;5.70;;
19727;SDS011;10015;52.530;13.390;2023-11-21T03:46:25;14.00;;;6.00;;
19727;SDS011;10015;52.530;13.390;2023-11-21T03:48:51;10.93;;;5.57;;
19727;SDS011;10015;52.530;13.390;2023-11-21T03:51:17;9.57;;;5.43;;
19727;SDS011;10015;52.530;13.390;2023-11-21T03:53:43;11.20;;;6.50;;
19727;SDS011;10015;52.530;13.390;2023-11-21T03:56:09;10.47;;;6.20;;
19727;SDS011;10015;52.530;13.390;2023-11-21T03:58:35;10.13;;;5.97;;
19727;SDS011;10015;52.530;13.390;2023-11-21T04:01:01;10.83;;;6.17;;
19727;SDS011;10015;52.530;13.390;2023-11-21T04:03:27;13.77;;;6.87;;
19727;SDS011;10015;52.530;13.390;2023-11-21T04:05:53;11.93;;;6.07;;
19727;SDS011;10015;52.530;13.390;2023-11-21T04:08:19;12.23;;;6.53;;
19727;SDS011;10015;52.530;13.390;2023-11-21T04:10:45;11.87;;;6.60;;
19727;SDS011;10015;52.530;13.390;2023-11-21T04:13:10;11.77;;;6.50;;
19727;SDS011;10015;52.530;13.390;2023-11-21T04:15:36;10.53;;;6.13;;
19727;SDS011;10015;52.530;13.390;2023-11-21T04:18:02;12.87;;;6.53;;
19727;SDS011;10015;52.530;13.390;2023-11-21T04:20:28;12.37;;;6.80;;
19727;SDS011;10015;52.530;13.390;2023-11-21T04:22:54;12.10;;;6.53;;
19727;SDS011;10015;52.530;13.390;2023-11-21T04:25:20;12.60;;;6.80;;
19727;SDS011;10015;52.530;13.390;2023-11-21T04:27:48;11.40;;;5.53;;
19727;SDS011;10015;52.530;13.390;2023-11-21T04:30:14;11.73;;;6.20;;
19727;SDS011;10015;52.530;13.390;2023-11-21T04:32:40;13.70;;;6.90;;
19727;SDS011;10015;52.530;13.390;2023-11-21T04:35:08;12.00;;;5.97;;
19727;SDS011;10015;52.530;13.390;2023-11-21T04:37:34;11.60;;;6.20;;
19727;SDS011;10015;52.530;13.390;2023-11-21T04:40:02;11.93;;;6.20;;
19727;SDS011;10015;52.530;13.390;2023-11-21T04:42:35;11.73;;;6.00;;
19727;SDS011;10015;52.530;13.390;2023-11-21T04:45:02;11.83;;;6.03;;
19727;SDS011;10015;52.530;13.390;2023-11-21T04:47:35;14.07;;;6.30;;
19727;SDS011;10015;52.530;13.390;2023-11-21T04:50:02;12.90;;;6.17;;
19727;SDS011;10015;52.530;13.390;2023-11-21T04:52:28;11.47;;;5.90;;
19727;SDS011;10015;52.530;13.390;2023-11-21T04:54:54;11.97;;;5.90;;
19727;SDS011;10015;52.530;13.390;2023-11-21T04:57:22;11.33;;;5.93;;
19727;SDS011;10015;52.530;13.390;2023-11-21T04:59:48;11.53;;;6.07;;
19727;SDS011;10015;52.530;13.390;2023-11-21T05:02:15;11.80;;;5.90;;
19727;SDS011;10015;52.530;13.390;2023-11-21T05:04:41;13.33;;;6.67;;
19727;SDS011;10015;52.530;13.390;2023-11-21T05:07:08;12.87;;;6.63;;
19727;SDS011;10015;52.530;13.390;2023-11-21T05:09:34;11.50;;;6.23;;
19727;SDS011;10015;52.530;13.390;2023-11-21T05:12:01;12.23;;;5.87;;
19727;SDS011;10015;52.530;13.390;2023-11-21T05:14:27;10.83;;;5.53;;
19727;SDS011;10015;52.530;13.390;2023-11-21T05:16:54;10.47;;;6.30;;
19727;SDS011;10015;52.530;13.390;2023-11-21T05:19:20;12.27;;;6.00;;
19727;SDS011;10015;52.530;13.390;2023-11-21T05:21:49;12.60;;;6.50;;
19727;SDS011;10015;52.530;13.390;2023-11-21T05:24:15;11.97;;;6.40;;
19727;SDS011;10015;52.530;13.390;2023-11-21T05:26:44;11.50;;;6.27;;
19727;SDS011;10015;52.530;13.390;2023-11-21T05:29:09;11.93;;;6.23;;
19727;SDS011;10015;52.530;13.390;2023-11-21T05:31:36;12.70;;;6.30;;
19727;SDS011;10015;52.530;13.390;2023-11-21T05:34:03;13.13;;;6.13;;
19727;SDS011;10015;52.530;13.390;2023-11-21T05:36:30;9.47;;;5.60;;
19727;SDS011;10015;52.530;13.390;2023-11-21T05:38:56;11.33;;;5.83;;
19727;SDS011;10015;52.530;13.390;2023-11-21T05:41:22;9.57;;;5.53;;
19727;SDS011;10015;52.530;13.390;2023-11-21T05:43:48;10.80;;;5.83;;
19727;SDS011;10015;52.530;13.390;2023-11-21T05:46:14;9.97;;;5.80;;
19727;SDS011;10015;52.530;13.390;2023-11-21T05:48:40;11.90;;;5.90;;
19727;SDS011;10015;52.530;13.390;2023-11-21T05:51:07;13.33;;;6.20;;
19727;SDS011;10015;52.530;13.390;2023-11-21T05:53:33;10.47;;;5.77;;
19727;SDS011;10015;52.530;13.390;2023-11-21T05:55:59;9.90;;;5.20;;
19727;SDS011;10015;52.530;13.390;2023-11-21T05:58:25;9.80;;;4.90;;
19727;SDS011;10015;52.530;13.390;2023-11-21T06:00:51;10.73;;;5.43;;
19727;SDS011;10015;52.530;13.390;2023-11-21T06:03:18;10.97;;;5.30;;
19727;SDS011;10015;52.530;13.390;2023-11-21T06:05:44;9.83;;;5.27;;
19727;SDS011;10015;52.530;13.390;2023-11-21T06:08:09;9.97;;;5.40;;
19727;SDS011;10015;52.530;13.390;2023-11-21T06:10:36;10.17;;;5.57;;
19727;SDS011;10015;52.530;13.390;2023-11-21T06:13:02;10.83;;;5.00;;
19727;SDS011;10015;52.530;13.390;2023-11-21T06:15:29;9.07;;;4.53;;
19727;SDS011;10015;52.530;13.390;2023-11-21T06:17:55;8.50;;;4.60;;
19727;SDS011;10015;52.530;13.390;2023-11-21T06:20:21;8.93;;;4.70;;
19727;SDS011;10015;52.530;13.390;2023-11-21T06:22:48;7.97;;;4.30;;
19727;SDS011;10015;52.530;13.390;2023-11-21T06:25:15;8.30;;;4.60;;
19727;SDS011;10015;52.530;13.390;2023-11-21T06:27:46;7.87;;;4.47;;
19727;SDS011;10015;52.530;13.390;2023-11-21T06:30:13;7.53;;;4.23;;
19727;SDS011;10015;52.530;13.390;2023-11-21T06:32:40;10.33;;;4.27;;
19727;SDS011;10015;52.530;13.390;2023-11-21T06:35:09;8.27;;;4.23;;
19727;SDS011;10015;52.530;13.390;2023-11-21T06:37:35;7.80;;;3.83;;
19727;SDS011;10015;52.530;13.390;2023-11-21T06:40:02;7.53;;;4.17;;
19727;SDS011;10015;52.530;13.390;2023-11-21T06:42:31;7.47;;;3.97;;
19727;SDS011;10015;52.530;13.390;2023-11-21T06:44:58;6.60;;;3.80;;
19727;SDS011;10015;52.530;13.390;2023-11-21T06:47:27;6.90;;;4.30;;
19727;SDS011;10015;52.530;13.390;2023-11-21T06:49:55;7.83;;;4.30;;
19727;SDS011;10015;52.530;13.390;2023-11-21T06:52:21;8.00;;;4.10;;
19727;SDS011;10015;52.530;13.390;2023-11-21T06:54:47;8.53;;;4.40;;
19727;SDS011;10015;52.530;13.390;2023-11-21T06:57:15;9.23;;;4.23;;
19727;SDS011;10015;52.530;13.390;2023-11-21T06:59:41;7.20;;;3.83;;
19727;SDS011;10015;52.530;13.390;2023-11-21T07:02:07;6.40;;;3.93;;
19727;SDS011;10015;52.530;13.390;2023-11-21T07:04:33;8.47;;;4.50;;
19727;SDS011;10015;52.530;13.390;2023-11-21T07:06:59;6.70;;;4.00;;
19727;SDS011;10015;52.530;13.390;2023-11-21T07:09:26;6.93;;;4.33;;
19727;SDS011;10015;52.530;13.390;2023-11-21T07:11:52;7.93;;;4.10;;
19727;SDS011;10015;52.530;13.390;2023-11-21T07:14:19;6.27;;;4.20;;
19727;SDS011;10015;52.530;13.390;2023-11-21T07:16:45;7.40;;;3.83;;
19727;SDS011;10015;52.530;13.390;2023-11-21T07:19:12;5.90;;;3.67;;
19727;SDS011;10015;52.530;13.390;2023-11-21T07:21:39;8.43;;;4.03;;
19727;SDS011;10015;52.530;13.390;2023-11-21T07:24:05;9.07;;;4.30;;
19727;SDS011;10015;52.530;13.390;2023-11-21T07:26:32;7.53;;;4.30;;
19727;SDS011;10015;52.530;13.390;2023-11-21T07:28:59;8.20;;;4.47;;
19727;SDS011;10015;52.530;13.390;2023-11-21T07:31:26;6.93;;;4.20;;
19727;SDS011;10015;52.530;13.390;2023-11-21T07:33:52;8.07;;;4.03;;
19727;SDS011;10015;52.530;13.390;2023-11-21T07:36:21;6.40;;;3.73;;
19727;SDS011;10015;52.530;13.390;2023-11-21T07:38:47;6.77;;;3.60;;
19727;SDS011;10015;52.530;13.390;2023-11-21T07:41:13;7.10;;;3.90;;
19727;SDS011;10015;52.530;13.390;2023-11-21T07:43:43;6.00;;;3.60;;
19727;SDS011;10015;52.530;13.390;2023-11-21T07:46:12;7.60;;;4.13;;
19727;SDS011;10015;52.530;13.390;2023-11-21T07:48:39;7.67;;;3.93;;
19727;SDS011;10015;52.530;13.390;2023-11-21T07:51:06;6.73;;;3.97;;
19727;SDS011;10015;52.530;13.390;2023-11-21T07:53:32;7.97;;;3.73;;
19727;SDS011;10015;52.530;13.390;2023-11-21T07:56:02;8.80;;;4.30;;
19727;SDS011;10015;52.530;13.390;2023-11-21T07:58:29;7.23;;;4.00;;
19727;SDS011;10015;52.530;13.390;2023-11-21T08:00:56;10.10;;;4.50;;
19727;SDS011;10015;52.530;13.390;2023-11-21T08:03:22;7.90;;;4.10;;
19727;SDS011;10015;52.530;13.390;2023-11-21T08:05:48;7.53;;;4.03;;
19727;SDS011;10015;52.530;13.390;2023-11-21T08:08:14;6.10;;;3.67;;
19727;SDS011;10015;52.530;13.390;2023-11-21T08:10:47;6.13;;;3.80;;
19727;SDS011;10015;52.530;13.390;2023-11-21T08:13:13;6.90;;;4.13;;
19727;SDS011;10015;52.530;13.390;2023-11-21T08:15:42;6.30;;;4.03;;
19727;SDS011;10015;52.530;13.390;2023-11-21T08:18:11;8.13;;;3.80;;
19727;SDS011;10015;52.530;13.390;2023-11-21T08:20:40;7.40;;;3.80;;
19727;SDS011;10015;52.530;13.390;2023-11-21T08:23:08;9.33;;;4.07;;
19727;SDS011;10015;52.530;13.390;2023-11-21T08:25:34;6.87;;;3.53;;
19727;SDS011;10015;52.530;13.390;2023-11-21T08:28:04;6.13;;;3.57;;
19727;SDS011;10015;52.530;13.390;2023-11-21T08:30:31;5.30;;;3.27;;
19727;SDS011;10015;52.530;13.390;2023-11-21T08:33:01;8.07;;;3.30;;
19727;SDS011;10015;52.530;13.390;2023-11-21T08:35:29;5.57;;;3.07;;
19727;SDS011;10015;52.530;13.390;2023-11-21T08:37:55;6.50;;;3.20;;
19727;SDS011;10015;52.530;13.390;2023-11-21T08:40:24;8.63;;;3.60;;
19727;SDS011;10015;52.530;13.390;2023-11-21T08:42:51;8.33;;;3.50;;
19727;SDS011;10015;52.530;13.390;2023-11-21T08:45:20;9.67;;;3.53;;
19727;SDS011;10015;52.530;13.390;2023-11-21T08:47:47;5.73;;;3.20;;
19727;SDS011;10015;52.530;13.390;2023-11-21T08:50:16;6.27;;;3.50;;
19727;SDS011;10015;52.530;13.390;2023-11-21T08:52:44;8.10;;;3.10;;
19727;SDS011;10015;52.530;13.390;2023-11-21T08:55:11;7.27;;;3.00;;
19727;SDS011;10015;52.530;13.390;2023-11-21T08:57:38;7.43;;;3.87;;
19727;SDS011;10015;52.530;13.390;2023-11-21T09:00:06;7.23;;;3.50;;
19727;SDS011;10015;52.530;13.390;2023-11-21T09:02:39;8.70;;;3.60;;
19727;SDS011;10015;52.530;13.390;2023-11-21T09:05:12;8.50;;;3.70;;
19727;SDS011;10015;52.530;13.390;2023-11-21T09:07:39;9.90;;;4.10;;
19727;SDS011;10015;52.530;13.390;2023-11-21T09:10:07;9.17;;;3.70;;
19727;SDS011;10015;52.530;13.390;2023-11-21T09:12:41;10.10;;;4.13;;
19727;SDS011;10015;52.530;13.390;2023-11-21T09:15:10;11.00;;;4.50;;
19727;SDS011;10015;52.530;13.390;2023-11-21T09:17:37;12.17;;;4.67;;
19727;SDS011;10015;52.530;13.390;2023-11-21T09:20:19;14.33;;;4.97;;
19727;SDS011;10015;52.530;13.390;2023-11-21T09:22:48;12.20;;;4.73;;
19727;SDS011;10015;52.530;13.390;2023-11-21T09:25:14;11.27;;;4.33;;
19727;SDS011;10015;52.530;13.390;2023-11-21T09:27:44;13.37;;;4.63;;
19727;SDS011;10015;52.530;13.390;2023-11-21T09:30:13;14.63;;;4.97;;
19727;SDS011;10015;52.530;13.390;2023-11-21T09:32:43;15.03;;;5.73;;
19727;SDS011;10015;52.530;13.390;2023-11-21T09:35:13;11.07;;;4.73;;
19727;SDS011;10015;52.530;13.390;2023-11-21T09:37:39;16.00;;;5.03;;
19727;SDS011;10015;52.530;13.390;2023-11-21T09:40:06;14.40;;;6.00;;
19727;SDS011;10015;52.530;13.390;2023-11-21T09:42:40;11.23;;;4.53;;
19727;SDS011;10015;52.530;13.390;2023-11-21T09:45:26;15.33;;;4.70;;
19727;SDS011;10015;52.530;13.390;2023-11-21T09:47:55;17.87;;;5.20;;
19727;SDS011;10015;52.530;13.390;2023-11-21T09:50:22;13.70;;;4.90;;
19727;SDS011;10015;52.530;13.390;2023-11-21T09:55:21;14.57;;;5.07;;
19727;SDS011;10015;52.530;13.390;2023-11-21T09:57:48;11.57;;;4.50;;
19727;SDS011;10015;52.530;13.390;2023-11-21T10:00:15;13.93;;;6.17;;
19727;SDS011;10015;52.530;13.390;2023-11-21T10:02:46;7.77;;;3.30;;
19727;SDS011;10015;52.530;13.390;2023-11-21T10:05:13;9.80;;;3.63;;
19727;SDS011;10015;52.530;13.390;2023-11-21T10:07:40;9.17;;;3.40;;
19727;SDS011;10015;52.530;13.390;2023-11-21T10:10:10;7.37;;;3.30;;
19727;SDS011;10015;52.530;13.390;2023-11-21T10:12:37;7.97;;;3.67;;
19727;SDS011;10015;52.530;13.390;2023-11-21T10:15:07;9.13;;;3.43;;
19727;SDS011;10015;52.530;13.390;2023-11-21T10:17:37;6.67;;;3.40;;
19727;SDS011;10015;52.530;13.390;2023-11-21T10:20:09;7.07;;;3.50;;
19727;SDS011;10015;52.530;13.390;2023-11-21T10:22:42;7.97;;;3.17;;
19727;SDS011;10015;52.530;13.390;2023-11-21T10:25:09;7.97;;;3.40;;
19727;SDS011;10015;52.530;13.390;2023-11-21T10:27:38;7.73;;;3.47;;
19727;SDS011;10015;52.530;13.390;2023-11-21T10:30:08;7.27;;;3.20;;
19727;SDS011;10015;52.530;13.390;2023-11-21T10:32:41;8.43;;;3.07;;
19727;SDS011;10015;52.530;13.390;2023-11-21T10:35:09;9.03;;;3.57;;
19727;SDS011;10015;52.530;13.390;2023-11-21T10:37:38;5.33;;;2.97;;
19727;SDS011;10015;52.530;13.390;2023-11-21T10:40:09;4.97;;;2.83;;
19727;SDS011;10015;52.530;13.390;2023-11-21T10:42:41;9.73;;;3.10;;
19727;SDS011;10015;52.530;13.390;2023-11-21T10:45:08;4.63;;;2.60;;
19727;SDS011;10015;52.530;13.390;2023-11-21T10:47:43;7.03;;;3.07;;
19727;SDS011;10015;52.530;13.390;2023-11-21T10:50:10;5.87;;;2.50;;
19727;SDS011;10015;52.530;13.390;2023-11-21T10:52:41;4.97;;;2.83;;
19727;SDS011;10015;52.530;13.390;2023-11-21T10:55:18;4.93;;;2.90;;
19727;SDS011;10015;52.530;13.390;2023-11-21T10:57:53;6.03;;;3.70;;
19727;SDS011;10015;52.530;13.390;2023-11-21T11:00:23;7.07;;;3.00;;
19727;SDS011;10015;52.530;13.390;2023-11-21T11:02:51;4.73;;;2.83;;
19727;SDS011;10015;52.530;13.390;2023-11-21T11:05:22;4.20;;;1.93;;
19727;SDS011;10015;52.530;13.390;2023-11-21T11:07:59;6.27;;;3.30;;
19727;SDS011;10015;52.530;13.390;2023-11-21T11:10:34;5.90;;;2.97;;
19727;SDS011;10015;52.530;13.390;2023-11-21T11:13:00;4.00;;;2.40;;
19727;SDS011;10015;52.530;13.390;2023-11-21T11:15:27;9.33;;;3.80;;
19727;SDS011;10015;52.530;13.390;2023-11-21T11:17:54;5.93;;;2.70;;
19727;SDS011;10015;52.530;13.390;2023-11-21T11:20:27;4.50;;;2.83;;
19727;SDS011;10015;52.530;13.390;2023-11-21T11:35:33;4.27;;;2.40;;
19727;SDS011;10015;52.530;13.390;2023-11-21T11:38:47;3.30;;;2.10;;
19727;SDS011;10015;52.530;13.390;2023-11-21T11:41:46;5.93;;;2.40;;
19727;SDS011;10015;52.530;13.390;2023-11-21T11:45:31;5.47;;;2.20;;
19727;SDS011;10015;52.530;13.390;2023-11-21T11:51:44;4.97;;;2.53;;
19727;SDS011;10015;52.530;13.390;2023-11-21T11:55:17;3.90;;;2.33;;
19727;SDS011;10015;52.530;13.390;2023-11-21T11:58:05;4.33;;;2.47;;
19727;SDS011;10015;52.530;13.390;2023-11-21T12:00:45;7.10;;;3.50;;
19727;SDS011;10015;52.530;13.390;2023-11-21T12:12:09;6.50;;;3.13;;
19727;SDS011;10015;52.530;13.390;2023-11-21T12:14:36;5.20;;;2.80;;
19727;SDS011;10015;52.530;13.390;2023-11-21T12:17:07;6.40;;;3.00;;
19727;SDS011;10015;52.530;13.390;2023-11-21T12:20:04;3.60;;;2.40;;
19727;SDS011;10015;52.530;13.390;2023-11-21T12:22:54;4.10;;;2.10;;
19727;SDS011;10015;52.530;13.390;2023-11-21T12:26:05;3.00;;;2.00;;
19727;SDS011;10015;52.530;13.390;2023-11-21T12:28:51;3.10;;;2.00;;
19727;SDS011;10015;52.530;13.390;2023-11-21T12:31:28;6.00;;;3.00;;
19727;SDS011;10015;52.530;13.390;2023-11-21T12:34:02;3.60;;;2.40;;
19727;SDS011;10015;52.530;13.390;2023-11-21T12:36:31;3.37;;;2.30;;
19727;SDS011;10015;52.530;13.390;2023-11-21T12:39:04;3.67;;;2.30;;
19727;SDS011;10015;52.530;13.390;2023-11-21T12:51:08;3.93;;;2.60;;
19727;SDS011;10015;52.530;13.390;2023-11-21T12:53:49;5.80;;;2.30;;
19727;SDS011;10015;52.530;13.390;2023-11-21T13:00:34;4.70;;;2.70;;
19727;SDS011;10015;52.530;13.390;2023-11-21T13:03:07;4.57;;;2.50;;
19727;SDS011;10015;52.530;13.390;2023-11-21T13:06:29;4.43;;;2.90;;
19727;SDS011;10015;52.530;13.390;2023-11-21T13:09:11;4.77;;;2.63;;
19727;SDS011;10015;52.530;13.390;2023-11-21T13:12:57;6.13;;;3.20;;
19727;SDS011;10015;52.530;13.390;2023-11-21T13:20:32;8.13;;;3.17;;
19727;SDS011;10015;52.530;13.390;2023-11-21T13:23:11;5.77;;;3.07;;
19727;SDS011;10015;52.530;13.390;2023-11-21T13:30:00;5.37;;;3.23;;
19727;SDS011;10015;52.530;13.390;2023-11-21T13:32:58;11.60;;;5.90;;
19727;SDS011;10015;52.530;13.390;2023-11-21T13:35:39;15.27;;;7.37;;
19727;SDS011;10015;52.530;13.390;2023-11-21T13:38:18;12.33;;;5.60;;
19727;SDS011;10015;52.530;13.390;2023-11-21T13:41:48;10.30;;;3.97;;
19727;SDS011;10015;52.530;13.390;2023-11-21T13:45:17;6.67;;;3.50;;
19727;SDS011;10015;52.530;13.390;2023-11-21T13:48:07;9.07;;;4.23;;
19727;SDS011;10015;52.530;13.390;2023-11-21T13:50:59;8.17;;;3.97;;
19727;SDS011;10015;52.530;13.390;2023-11-21T13:53:41;6.53;;;3.97;;
19727;SDS011;10015;52.530;13.390;2023-11-21T13:56:52;7.57;;;4.00;;
19727;SDS011;10015;52.530;13.390;2023-11-21T13:59:34;8.17;;;4.03;;
19727;SDS011;10015;52.530;13.390;2023-11-21T14:02:09;8.53;;;4.37;;
19727;SDS011;10015;52.530;13.390;2023-11-21T14:08:09;10.10;;;5.33;;
19727;SDS011;10015;52.530;13.390;2023-11-21T14:10:58;10.43;;;4.83;;
19727;SDS011;10015;52.530;13.390;2023-11-21T14:13:32;10.03;;;5.20;;
19727;SDS011;10015;52.530;13.390;2023-11-21T14:15:59;9.10;;;4.97;;
19727;SDS011;10015;52.530;13.390;2023-11-21T14:18:32;11.27;;;5.87;;
19727;SDS011;10015;52.530;13.390;2023-11-21T14:21:24;11.63;;;6.30;;
19727;SDS011;10015;52.530;13.390;2023-11-21T14:24:27;16.43;;;8.40;;
19727;SDS011;10015;52.530;13.390;2023-11-21T14:27:36;14.77;;;7.27;;
19727;SDS011;10015;52.530;13.390;2023-11-21T14:30:25;18.60;;;7.73;;
19727;SDS011;10015;52.530;13.390;2023-11-21T14:33:08;14.33;;;7.13;;
19727;SDS011;10015;52.530;13.390;2023-11-21T14:35:40;13.60;;;7.43;;
19727;SDS011;10015;52.530;13.390;2023-11-21T14:38:20;16.20;;;7.80;;
19727;SDS011;10015;52.530;13.390;2023-11-21T14:41:00;19.57;;;8.27;;
19727;SDS011;10015;52.530;13.390;2023-11-21T14:43:45;17.87;;;8.13;;
19727;SDS011;10015;52.530;13.390;2023-11-21T14:46:19;18.67;;;9.03;;
19727;SDS011;10015;52.530;13.390;2023-11-21T14:49:20;18.73;;;9.77;;
19727;SDS011;10015;52.530;13.390;2023-11-21T14:52:34;22.27;;;10.47;;
19727;SDS011;10015;52.530;13.390;2023-11-21T14:55:29;21.73;;;10.53;;
19727;SDS011;10015;52.530;13.390;2023-11-21T14:58:05;22.60;;;10.27;;
19727;SDS011;10015;52.530;13.390;2023-11-21T15:00:35;21.23;;;10.00;;
19727;SDS011;10015;52.530;13.390;2023-11-21T15:03:02;18.70;;;9.90;;
19727;SDS011;10015;52.530;13.390;2023-11-21T15:09:05;17.33;;;9.47;;
19727;SDS011;10015;52.530;13.390;2023-11-21T15:11:40;17.80;;;9.17;;
19727;SDS011;10015;52.530;13.390;2023-11-21T15:14:19;20.03;;;9.07;;
19727;SDS011;10015;52.530;13.390;2023-11-21T15:17:03;18.63;;;9.63;;
19727;SDS011;10015;52.530;13.390;2023-11-21T15:19:30;21.17;;;8.83;;
19727;SDS011;10015;52.530;13.390;2023-11-21T15:22:06;17.27;;;8.70;;
19727;SDS011;10015;52.530;13.390;2023-11-21T15:24:52;19.33;;;9.00;;
19727;SDS011;10015;52.530;13.390;2023-11-21T15:27:36;15.43;;;8.00;;
19727;SDS011;10015;52.530;13.390;2023-11-21T15:30:31;19.00;;;9.20;;
19727;SDS011;10015;52.530;13.390;2023-11-21T15:33:04;19.50;;;9.10;;
19727;SDS011;10015;52.530;13.390;2023-11-21T15:35:31;19.57;;;8.80;;
19727;SDS011;10015;52.530;13.390;2023-11-21T15:38:03;18.63;;;9.03;;
19727;SDS011;10015;52.530;13.390;2023-11-21T15:40:29;18.07;;;8.73;;
19727;SDS011;10015;52.530;13.390;2023-11-21T15:42:57;16.73;;;8.97;;
19727;SDS011;10015;52.530;13.390;2023-11-21T15:45:23;18.40;;;8.97;;
19727;SDS011;10015;52.530;13.390;2023-11-21T15:47:51;18.60;;;8.77;;